createdAt,value
2022-08-17T00:01:52.638Z,20.00
2022-08-17T00:04:21.182Z,20.00
2022-08-17T00:06:50.828Z,20.00
2022-08-17T00:09:19.514Z,20.10
2022-08-17T00:12:44.421Z,20.20
2022-08-17T00:14:39.958Z,20.20
2022-08-17T00:17:08.200Z,20.20
2022-08-17T00:19:36.297Z,20.20
2022-08-17T00:22:31.395Z,20.20
2022-08-17T00:24:54.743Z,20.20
2022-08-17T00:27:22.708Z,20.10
2022-08-17T00:29:52.190Z,20.10
2022-08-17T00:33:22.742Z,20.00
2022-08-17T00:35:10.438Z,19.90
2022-08-17T00:37:38.452Z,19.90
2022-08-17T00:40:08.291Z,19.80
2022-08-17T00:42:36.736Z,19.70
2022-08-17T00:45:07.068Z,19.70
2022-08-17T00:47:35.409Z,19.60
2022-08-17T00:50:03.568Z,19.60
2022-08-17T00:52:37.117Z,19.50
2022-08-17T00:55:07.112Z,19.40
2022-08-17T00:57:40.219Z,19.40
2022-08-17T01:00:13.981Z,19.40
2022-08-17T01:02:44.976Z,19.40
2022-08-17T01:05:18.593Z,19.40
2022-08-17T01:07:48.976Z,19.40
2022-08-17T01:10:58.269Z,19.30
2022-08-17T01:13:07.465Z,19.30
2022-08-17T01:15:40.012Z,19.30
2022-08-17T01:18:11.372Z,19.30
2022-08-17T01:20:43.052Z,19.20
2022-08-17T01:23:21.231Z,19.20
2022-08-17T01:25:51.920Z,19.20
2022-08-17T01:28:33.458Z,19.20
2022-08-17T01:31:10.506Z,19.20
2022-08-17T01:33:38.726Z,19.20
2022-08-17T01:36:08.690Z,19.20
2022-08-17T01:38:39.202Z,19.20
2022-08-17T01:41:11.219Z,19.20
2022-08-17T01:43:44.550Z,19.20
2022-08-17T01:46:17.128Z,19.20
2022-08-17T01:48:47.357Z,19.20
2022-08-17T01:51:16.685Z,19.20
2022-08-17T01:53:50.547Z,19.20
2022-08-17T01:56:22.361Z,19.20
2022-08-17T01:58:51.165Z,19.20
2022-08-17T02:01:22.047Z,19.10
2022-08-17T02:03:59.437Z,19.10
2022-08-17T02:06:30.602Z,19.10
2022-08-17T02:09:03.797Z,19.10
2022-08-17T02:11:35.154Z,19.10
2022-08-17T02:14:04.215Z,19.00
2022-08-17T02:16:37.641Z,19.00
2022-08-17T02:19:07.615Z,18.90
2022-08-17T02:21:35.865Z,18.90
2022-08-17T02:24:08.379Z,18.90
2022-08-17T02:26:36.443Z,18.90
2022-08-17T02:29:05.048Z,18.90
2022-08-17T02:31:33.092Z,18.90
2022-08-17T02:34:04.650Z,18.90
2022-08-17T02:36:34.326Z,18.90
2022-08-17T02:39:04.549Z,18.90
2022-08-17T02:41:33.151Z,18.90
2022-08-17T02:44:01.749Z,18.90
2022-08-17T02:46:30.438Z,19.00
2022-08-17T02:48:58.592Z,19.00
2022-08-17T02:51:26.838Z,19.00
2022-08-17T02:54:39.009Z,19.00
2022-08-17T02:56:44.555Z,19.00
2022-08-17T02:59:12.609Z,18.90
2022-08-17T03:01:40.855Z,18.90
2022-08-17T03:04:08.964Z,18.80
2022-08-17T03:06:37.378Z,18.80
2022-08-17T03:09:05.836Z,18.80
2022-08-17T03:11:33.882Z,18.80
2022-08-17T03:14:03.290Z,18.90
2022-08-17T03:16:31.331Z,18.80
2022-08-17T03:18:59.502Z,18.90
2022-08-17T03:21:27.527Z,18.90
2022-08-17T03:23:55.557Z,19.00
2022-08-17T03:26:23.543Z,19.00
2022-08-17T03:28:57.680Z,19.00
2022-08-17T03:31:27.208Z,19.10
2022-08-17T03:33:55.948Z,19.10
2022-08-17T03:36:24.004Z,19.10
2022-08-17T03:38:52.149Z,19.20
2022-08-17T03:41:20.757Z,19.10
2022-08-17T03:43:48.782Z,19.20
2022-08-17T03:46:35.599Z,19.20
2022-08-17T03:49:24.333Z,19.10
2022-08-17T03:52:09.908Z,19.10
2022-08-17T03:54:55.455Z,19.20
2022-08-17T03:57:23.533Z,19.20
2022-08-17T03:59:52.075Z,19.20
2022-08-17T04:02:22.628Z,19.20
2022-08-17T04:04:52.304Z,19.20
2022-08-17T04:07:22.690Z,19.20
2022-08-17T04:09:50.982Z,19.10
2022-08-17T04:12:20.498Z,19.20
2022-08-17T04:14:52.909Z,19.10
2022-08-17T04:17:23.842Z,19.20
2022-08-17T04:19:53.822Z,19.20
2022-08-17T04:22:32.622Z,19.10
2022-08-17T04:25:05.021Z,19.20
2022-08-17T04:27:33.164Z,19.10
2022-08-17T04:30:01.672Z,19.20
2022-08-17T04:33:10.825Z,19.20
2022-08-17T04:35:24.983Z,19.20
2022-08-17T04:37:53.314Z,19.20
2022-08-17T04:40:46.117Z,19.20
2022-08-17T04:43:18.608Z,19.20
2022-08-17T04:45:55.556Z,19.10
2022-08-17T04:48:34.750Z,19.10
2022-08-17T04:51:09.565Z,19.20
2022-08-17T04:53:38.197Z,19.20
2022-08-17T04:56:07.036Z,19.20
2022-08-17T04:58:35.344Z,19.20
2022-08-17T05:01:03.484Z,19.20
2022-08-17T05:03:32.006Z,19.30
2022-08-17T05:06:00.279Z,19.30
2022-08-17T05:08:29.953Z,19.30
2022-08-17T05:10:58.017Z,19.30
2022-08-17T05:13:29.601Z,19.30
2022-08-17T05:16:01.656Z,19.40
2022-08-17T05:18:31.643Z,19.40
2022-08-17T05:20:59.782Z,19.40
2022-08-17T05:23:41.671Z,19.40
2022-08-17T05:26:21.379Z,19.40
2022-08-17T05:28:57.314Z,19.50
2022-08-17T05:31:31.359Z,19.50
2022-08-17T05:34:00.117Z,19.50
2022-08-17T05:36:42.112Z,19.50
2022-08-17T05:39:16.124Z,19.50
2022-08-17T05:41:48.899Z,19.50
2022-08-17T05:44:17.520Z,19.60
2022-08-17T05:46:50.676Z,19.60
2022-08-17T05:49:24.395Z,19.60
2022-08-17T05:52:07.396Z,19.70
2022-08-17T05:54:51.524Z,19.80
2022-08-17T05:57:47.529Z,19.80
2022-08-17T06:00:30.295Z,19.80
2022-08-17T06:03:23.557Z,19.90
2022-08-17T06:06:02.444Z,19.90
2022-08-17T06:08:40.104Z,20.00
2022-08-17T06:11:24.218Z,20.00
2022-08-17T06:14:06.944Z,20.00
2022-08-17T06:16:39.873Z,20.00
2022-08-17T06:19:19.866Z,20.10
2022-08-17T06:21:52.471Z,20.10
2022-08-17T06:24:28.609Z,20.10
2022-08-17T06:27:07.257Z,20.30
2022-08-17T06:29:42.504Z,20.40
2022-08-17T06:32:12.733Z,20.60
2022-08-17T06:34:44.788Z,20.70
2022-08-17T06:37:32.267Z,21.00
2022-08-17T06:40:15.563Z,21.20
2022-08-17T06:43:05.515Z,21.40
2022-08-17T06:45:40.085Z,21.50
2022-08-17T06:48:14.007Z,21.60
2022-08-17T06:50:48.797Z,21.70
2022-08-17T06:53:25.811Z,21.80
2022-08-17T06:55:59.872Z,21.90
2022-08-17T06:58:31.473Z,21.90
2022-08-17T07:01:09.815Z,21.90
2022-08-17T07:03:49.945Z,22.10
2022-08-17T07:06:21.123Z,22.20
2022-08-17T07:08:54.840Z,22.40
2022-08-17T07:11:28.916Z,22.50
2022-08-17T07:14:17.004Z,22.70
2022-08-17T07:16:48.808Z,22.90
2022-08-17T07:19:19.273Z,22.90
2022-08-17T07:21:54.922Z,23.00
2022-08-17T07:24:39.352Z,23.10
2022-08-17T07:27:15.020Z,23.20
2022-08-17T07:29:49.438Z,23.30
2022-08-17T07:32:21.679Z,23.40
2022-08-17T07:35:11.208Z,23.50
2022-08-17T07:37:41.443Z,23.70
2022-08-17T07:40:35.127Z,23.90
2022-08-17T07:43:26.071Z,23.90
2022-08-17T07:46:32.506Z,24.00
2022-08-17T07:49:19.240Z,24.10
2022-08-17T07:52:24.309Z,24.30
2022-08-17T07:54:48.880Z,24.40
2022-08-17T07:57:38.107Z,24.60
2022-08-17T08:00:19.744Z,24.70
2022-08-17T08:03:13.627Z,24.80
2022-08-17T08:05:51.758Z,24.90
2022-08-17T08:08:33.475Z,25.00
2022-08-17T08:11:07.130Z,25.10
2022-08-17T08:13:40.375Z,25.30
2022-08-17T08:16:27.523Z,25.30
2022-08-17T08:18:58.887Z,25.30
2022-08-17T08:21:37.805Z,25.50
2022-08-17T08:24:26.358Z,25.50
2022-08-17T08:27:08.107Z,25.70
2022-08-17T08:29:52.699Z,25.70
2022-08-17T08:32:27.942Z,25.90
2022-08-17T08:35:03.858Z,26.10
2022-08-17T08:37:44.087Z,26.30
2022-08-17T08:40:29.878Z,26.30
2022-08-17T08:43:09.361Z,26.40
2022-08-17T08:45:46.969Z,26.50
2022-08-17T08:48:57.819Z,26.50
2022-08-17T08:51:27.678Z,26.70
2022-08-17T08:54:03.286Z,26.70
2022-08-17T08:56:38.189Z,26.70
2022-08-17T08:59:18.877Z,26.40
2022-08-17T09:01:53.194Z,26.20
2022-08-17T09:05:10.565Z,26.20
2022-08-17T09:07:39.138Z,26.10
2022-08-17T09:10:13.964Z,26.00
2022-08-17T09:12:49.858Z,26.00
2022-08-17T09:15:21.480Z,25.90
2022-08-17T09:18:28.494Z,25.90
2022-08-17T09:20:50.355Z,25.90
2022-08-17T09:23:32.411Z,25.80
2022-08-17T09:26:05.208Z,25.90
2022-08-17T09:28:37.826Z,25.90
2022-08-17T09:31:11.081Z,26.00
2022-08-17T09:33:44.291Z,26.10
2022-08-17T09:36:17.434Z,26.20
2022-08-17T09:38:58.234Z,26.40
2022-08-17T09:41:32.694Z,26.70
2022-08-17T09:44:07.688Z,26.90
2022-08-17T09:46:41.975Z,27.10
2022-08-17T09:49:24.606Z,27.50
2022-08-17T09:51:59.776Z,27.60
2022-08-17T09:54:39.293Z,28.00
2022-08-17T09:57:30.213Z,28.00
2022-08-17T10:00:16.882Z,27.90
2022-08-17T10:03:11.488Z,27.80
2022-08-17T10:05:46.776Z,27.90
2022-08-17T10:08:23.139Z,27.80
2022-08-17T10:11:06.868Z,27.60
2022-08-17T10:13:53.238Z,27.50
2022-08-17T10:16:28.426Z,27.40
2022-08-17T10:19:14.818Z,27.40
2022-08-17T10:22:32.603Z,27.30
2022-08-17T10:25:23.186Z,27.10
2022-08-17T10:27:57.624Z,27.20
2022-08-17T10:30:35.998Z,27.20
2022-08-17T10:33:08.277Z,27.10
2022-08-17T10:35:45.346Z,27.10
2022-08-17T10:38:32.176Z,26.90
2022-08-17T10:41:27.023Z,26.80
2022-08-17T10:44:40.456Z,26.70
2022-08-17T10:47:07.351Z,26.60
2022-08-17T10:49:38.085Z,26.40
2022-08-17T10:52:45.063Z,26.20
2022-08-17T10:55:18.924Z,26.20
2022-08-17T10:57:49.657Z,26.10
2022-08-17T11:01:11.415Z,26.20
2022-08-17T11:03:54.792Z,26.30
2022-08-17T11:06:31.560Z,26.40
2022-08-17T11:09:32.018Z,26.30
2022-08-17T11:12:15.863Z,26.40
2022-08-17T11:15:04.594Z,26.30
2022-08-17T11:18:04.583Z,26.10
2022-08-17T11:20:56.684Z,26.20
2022-08-17T11:23:59.258Z,26.30
2022-08-17T11:26:32.033Z,26.40
2022-08-17T11:29:03.567Z,26.80
2022-08-17T11:31:43.539Z,27.20
2022-08-17T11:34:20.961Z,27.30
2022-08-17T11:37:04.728Z,27.30
2022-08-17T11:40:06.503Z,27.40
2022-08-17T11:42:56.212Z,27.30
2022-08-17T11:45:45.090Z,27.40
2022-08-17T11:48:38.189Z,27.40
2022-08-17T11:51:31.722Z,27.20
2022-08-17T11:54:31.544Z,27.20
2022-08-17T11:56:54.859Z,27.20
2022-08-17T11:59:58.871Z,27.20
2022-08-17T12:02:48.833Z,27.30
2022-08-17T12:05:38.127Z,27.20
2022-08-17T12:08:17.734Z,27.30
2022-08-17T12:11:00.693Z,27.40
2022-08-17T12:13:38.592Z,27.50
2022-08-17T12:16:10.107Z,27.30
2022-08-17T12:18:41.910Z,27.20
2022-08-17T12:21:37.274Z,27.20
2022-08-17T12:24:13.150Z,27.10
2022-08-17T12:26:45.214Z,27.20
2022-08-17T12:29:18.504Z,27.30
2022-08-17T12:32:04.807Z,27.40
2022-08-17T12:34:37.551Z,27.40
2022-08-17T12:37:14.607Z,27.40
2022-08-17T12:39:52.408Z,27.50
2022-08-17T12:42:29.346Z,27.40
2022-08-17T12:44:58.300Z,27.30
2022-08-17T12:47:29.493Z,27.10
2022-08-17T12:50:08.278Z,26.80
2022-08-17T12:53:01.764Z,26.70
2022-08-17T12:55:36.665Z,26.60
2022-08-17T12:58:10.993Z,26.60
2022-08-17T13:00:49.931Z,26.50
2022-08-17T13:03:21.106Z,26.40
2022-08-17T13:05:58.533Z,26.40
2022-08-17T13:08:31.548Z,26.10
2022-08-17T13:11:02.178Z,26.00
2022-08-17T13:13:34.036Z,25.90
2022-08-17T13:16:05.110Z,25.90
2022-08-17T13:18:39.533Z,25.90
2022-08-17T13:21:12.385Z,26.00
2022-08-17T13:23:50.962Z,26.10
2022-08-17T13:26:31.762Z,26.20
2022-08-17T13:29:02.538Z,26.40
2022-08-17T13:31:44.034Z,26.30
2022-08-17T13:34:35.806Z,26.40
2022-08-17T13:37:26.347Z,26.50
2022-08-17T13:39:56.138Z,26.60
2022-08-17T13:42:52.967Z,26.70
2022-08-17T13:45:53.912Z,26.70
2022-08-17T13:48:28.491Z,26.70
2022-08-17T13:51:14.048Z,26.70
2022-08-17T13:53:59.586Z,26.70
2022-08-17T13:56:39.035Z,26.60
2022-08-17T13:59:12.338Z,26.60
2022-08-17T14:01:50.943Z,26.50
2022-08-17T14:04:24.823Z,26.50
2022-08-17T14:06:55.906Z,26.30
2022-08-17T14:09:31.419Z,26.30
2022-08-17T14:12:05.220Z,26.20
2022-08-17T14:14:33.339Z,26.20
2022-08-17T14:17:02.784Z,26.10
2022-08-17T14:19:31.061Z,26.00
2022-08-17T14:22:00.513Z,25.90
2022-08-17T14:24:32.238Z,26.00
2022-08-17T14:27:01.890Z,26.10
2022-08-17T14:29:31.164Z,26.10
2022-08-17T14:32:03.198Z,26.30
2022-08-17T14:34:32.740Z,26.50
2022-08-17T14:37:00.787Z,26.80
2022-08-17T14:39:29.129Z,27.00
2022-08-17T14:41:58.496Z,26.90
2022-08-17T14:44:26.549Z,27.00
2022-08-17T14:46:54.645Z,27.20
2022-08-17T14:49:22.664Z,27.20
2022-08-17T14:51:52.181Z,27.10
2022-08-17T14:54:33.885Z,27.10
2022-08-17T14:57:23.413Z,27.20
2022-08-17T14:59:54.709Z,27.20
2022-08-17T15:02:29.648Z,27.40
2022-08-17T15:05:03.916Z,27.40
2022-08-17T15:07:33.739Z,27.40
2022-08-17T15:10:02.686Z,27.40
2022-08-17T15:12:33.957Z,27.30
2022-08-17T15:15:04.198Z,27.10
2022-08-17T15:17:44.662Z,27.00
2022-08-17T15:20:15.974Z,26.40
2022-08-17T15:22:46.696Z,25.50
2022-08-17T15:25:15.648Z,25.20
2022-08-17T15:27:44.322Z,25.30
2022-08-17T15:30:13.872Z,25.20
2022-08-17T15:32:51.247Z,24.90
2022-08-17T15:35:26.850Z,24.90
2022-08-17T15:38:04.568Z,25.20
2022-08-17T15:40:37.026Z,25.60
2022-08-17T15:43:10.483Z,25.90
2022-08-17T15:45:39.287Z,26.10
2022-08-17T15:48:07.951Z,26.10
2022-08-17T15:50:36.788Z,25.90
2022-08-17T15:53:06.252Z,25.90
2022-08-17T15:55:34.870Z,26.00
2022-08-17T15:58:03.233Z,25.80
2022-08-17T16:00:31.629Z,25.40
2022-08-17T16:03:57.378Z,25.40
2022-08-17T16:06:02.953Z,25.40
2022-08-17T16:08:32.599Z,25.40
2022-08-17T16:11:00.608Z,25.20
2022-08-17T16:13:29.480Z,25.30
2022-08-17T16:15:58.109Z,25.10
2022-08-17T16:18:30.971Z,24.70
2022-08-17T16:21:19.776Z,24.60
2022-08-17T16:23:51.405Z,24.50
2022-08-17T16:26:19.950Z,24.40
2022-08-17T16:28:48.192Z,24.50
2022-08-17T16:31:16.548Z,24.60
2022-08-17T16:34:16.879Z,24.30
2022-08-17T16:36:33.576Z,24.30
2022-08-17T16:39:03.089Z,24.30
2022-08-17T16:41:46.310Z,24.30
2022-08-17T16:44:15.798Z,24.30
2022-08-17T16:46:45.674Z,24.30
2022-08-17T16:49:29.684Z,24.40
2022-08-17T16:52:03.886Z,24.50
2022-08-17T16:54:35.751Z,24.30
2022-08-17T16:57:05.812Z,24.20
2022-08-17T16:59:42.230Z,24.30
2022-08-17T17:02:14.120Z,24.20
2022-08-17T17:04:48.335Z,24.00
2022-08-17T17:07:33.749Z,24.00
2022-08-17T17:10:08.892Z,24.00
2022-08-17T17:13:03.059Z,23.90
2022-08-17T17:15:34.105Z,23.80
2022-08-17T17:18:07.017Z,23.80
2022-08-17T17:20:43.621Z,23.70
2022-08-17T17:23:19.401Z,23.60
2022-08-17T17:25:56.443Z,23.50
2022-08-17T17:28:30.299Z,23.60
2022-08-17T17:31:04.258Z,23.50
2022-08-17T17:33:38.540Z,23.50
2022-08-17T17:36:09.943Z,23.50
2022-08-17T17:38:44.048Z,23.40
2022-08-17T17:41:25.859Z,23.40
2022-08-17T17:44:01.911Z,23.40
2022-08-17T17:46:36.442Z,23.40
2022-08-17T17:49:05.930Z,23.30
2022-08-17T17:52:07.231Z,23.30
2022-08-17T17:54:49.114Z,23.10
2022-08-17T17:57:30.858Z,23.00
2022-08-17T18:00:07.200Z,22.90
2022-08-17T18:02:51.641Z,22.80
2022-08-17T18:05:35.752Z,22.70
2022-08-17T18:08:16.558Z,22.60
2022-08-17T18:10:51.000Z,22.50
2022-08-17T18:13:29.928Z,22.50
2022-08-17T18:16:00.888Z,22.50
2022-08-17T18:18:38.647Z,22.50
2022-08-17T18:21:15.644Z,22.40
2022-08-17T18:23:56.110Z,22.30
2022-08-17T18:26:39.254Z,22.30
2022-08-17T18:29:35.849Z,22.40
2022-08-17T18:32:23.771Z,22.30
2022-08-17T18:34:54.709Z,22.20
2022-08-17T18:37:38.993Z,22.10
2022-08-17T18:40:29.925Z,22.10
2022-08-17T18:43:04.011Z,22.10
2022-08-17T18:45:38.166Z,22.00
2022-08-17T18:48:17.726Z,22.00
2022-08-17T18:50:45.816Z,21.90
2022-08-17T18:53:30.238Z,21.80
2022-08-17T18:56:28.233Z,21.60
2022-08-17T18:59:26.997Z,21.60
2022-08-17T19:05:13.267Z,21.40
2022-08-17T19:07:43.303Z,21.40
2022-08-17T19:10:22.867Z,21.20
2022-08-17T19:13:00.471Z,21.10
2022-08-17T19:15:35.755Z,21.00
2022-08-17T19:18:15.764Z,20.90
2022-08-17T19:20:49.116Z,20.90
2022-08-17T19:23:23.472Z,20.80
2022-08-17T19:25:54.205Z,20.70
2022-08-17T19:28:25.889Z,20.60
2022-08-17T19:30:57.522Z,20.50
2022-08-17T19:33:27.894Z,20.50
2022-08-17T19:36:04.738Z,20.50
2022-08-17T19:38:43.270Z,20.40
2022-08-17T19:41:20.480Z,20.40
2022-08-17T19:44:10.430Z,20.20
2022-08-17T19:46:48.609Z,20.00
2022-08-17T19:49:32.911Z,19.90
2022-08-17T19:52:15.728Z,19.90
2022-08-17T19:54:55.465Z,19.80
2022-08-17T19:57:34.827Z,19.80
2022-08-17T20:00:06.418Z,19.70
2022-08-17T20:02:42.421Z,19.70
2022-08-17T20:05:20.569Z,19.70
2022-08-17T20:07:55.051Z,19.70
2022-08-17T20:10:31.617Z,19.70
2022-08-17T20:13:07.479Z,19.70
2022-08-17T20:15:37.810Z,19.70
2022-08-17T20:18:13.459Z,19.60
2022-08-17T20:20:54.738Z,19.60
2022-08-17T20:23:35.787Z,19.50
2022-08-17T20:26:17.157Z,19.40
2022-08-17T20:29:07.971Z,19.40
2022-08-17T20:31:49.512Z,19.40
2022-08-17T20:34:36.907Z,19.40
2022-08-17T20:37:09.478Z,19.30
2022-08-17T20:39:41.321Z,19.20
2022-08-17T20:42:29.238Z,19.20
2022-08-17T20:44:59.397Z,19.20
2022-08-17T20:47:32.662Z,19.30
2022-08-17T20:50:04.642Z,19.30
2022-08-17T20:52:50.730Z,19.20
2022-08-17T20:55:51.732Z,19.20
2022-08-17T20:58:48.548Z,19.20
2022-08-17T21:01:24.303Z,19.20
2022-08-17T21:03:54.187Z,19.20
2022-08-17T21:06:24.988Z,19.20
2022-08-17T21:09:19.506Z,19.20
2022-08-17T21:12:02.690Z,19.30
2022-08-17T21:14:58.105Z,19.30
2022-08-17T21:17:46.110Z,19.40
2022-08-17T21:20:28.070Z,19.30
2022-08-17T21:23:23.680Z,19.30
2022-08-17T21:26:18.513Z,19.30
2022-08-17T21:29:01.550Z,19.30
2022-08-17T21:31:50.692Z,19.20
2022-08-17T21:34:29.136Z,19.20
2022-08-17T21:37:17.716Z,19.20
2022-08-17T21:39:50.682Z,19.00
2022-08-17T21:42:26.034Z,19.00
2022-08-17T21:44:58.251Z,18.90
2022-08-17T21:47:28.852Z,18.90
2022-08-17T21:50:14.134Z,18.90
2022-08-17T21:52:42.227Z,18.80
2022-08-17T21:55:21.515Z,18.80
2022-08-17T21:57:53.148Z,18.80
2022-08-17T22:00:39.595Z,18.80
2022-08-17T22:03:22.525Z,18.70
2022-08-17T22:05:51.586Z,18.60
2022-08-17T22:08:23.686Z,18.60
2022-08-17T22:11:00.533Z,18.60
2022-08-17T22:13:30.211Z,18.60
2022-08-17T22:16:28.144Z,18.60
2022-08-17T22:18:59.894Z,18.60
2022-08-17T22:21:28.590Z,18.60
2022-08-17T22:24:04.850Z,18.60
2022-08-17T22:27:00.050Z,18.70
2022-08-17T22:29:57.209Z,18.80
2022-08-17T22:32:37.735Z,18.80
2022-08-17T22:35:40.176Z,18.90
2022-08-17T22:38:27.604Z,18.90
2022-08-17T22:41:15.109Z,18.90
2022-08-17T22:43:44.795Z,18.90
2022-08-17T22:46:15.180Z,18.90
2022-08-17T22:48:50.208Z,18.90
2022-08-17T22:51:21.750Z,18.90
2022-08-17T22:54:09.762Z,18.80
2022-08-17T22:56:59.028Z,18.80
2022-08-17T22:59:43.672Z,18.70
2022-08-17T23:02:23.898Z,18.60
2022-08-17T23:04:54.633Z,18.60
2022-08-17T23:07:23.102Z,18.50
2022-08-17T23:09:53.716Z,18.50
2022-08-17T23:12:26.329Z,18.50
2022-08-17T23:15:00.601Z,18.50
2022-08-17T23:17:36.907Z,18.50
2022-08-17T23:20:08.186Z,18.40
2022-08-17T23:22:51.940Z,18.40
2022-08-17T23:25:28.031Z,18.30
2022-08-17T23:27:57.227Z,18.30
2022-08-17T23:30:28.501Z,18.20
2022-08-17T23:33:01.244Z,18.20
2022-08-17T23:35:39.784Z,18.30
2022-08-17T23:38:09.410Z,18.30
2022-08-17T23:40:37.751Z,18.40
2022-08-17T23:43:24.851Z,18.40
2022-08-17T23:45:57.601Z,18.50
2022-08-17T23:48:32.444Z,18.60
2022-08-17T23:51:05.915Z,18.70
2022-08-17T23:53:36.241Z,18.80
2022-08-17T23:56:10.259Z,18.90
2022-08-17T23:58:39.529Z,19.00
